createdAt,value
2018-10-16T00:02:03.062Z,18.33
2018-10-16T00:04:30.057Z,16.77
2018-10-16T00:06:57.054Z,17.30
2018-10-16T00:09:24.022Z,16.80
2018-10-16T00:11:58.686Z,17.33
2018-10-16T00:14:25.684Z,17.07
2018-10-16T00:16:52.686Z,16.53
2018-10-16T00:19:20.070Z,17.60
2018-10-16T00:21:47.059Z,18.37
2018-10-16T00:24:14.354Z,18.17
2018-10-16T00:26:41.685Z,19.47
2018-10-16T00:29:09.029Z,18.37
2018-10-16T00:31:36.110Z,19.10
2018-10-16T00:34:03.107Z,18.53
2018-10-16T00:36:30.146Z,17.00
2018-10-16T00:38:57.163Z,18.47
2018-10-16T00:41:24.145Z,18.17
2018-10-16T00:43:51.143Z,18.87
2018-10-16T00:46:18.146Z,18.43
2018-10-16T00:48:45.189Z,17.97
2018-10-16T00:51:12.172Z,18.00
2018-10-16T00:53:39.202Z,19.00
2018-10-16T00:56:06.227Z,17.73
2018-10-16T00:58:33.210Z,18.10
2018-10-16T01:01:00.200Z,17.73
2018-10-16T01:03:27.177Z,17.73
2018-10-16T01:05:54.170Z,17.00
2018-10-16T01:08:21.184Z,17.60
2018-10-16T01:10:48.177Z,16.70
2018-10-16T01:13:15.174Z,17.03
2018-10-16T01:15:42.142Z,17.00
2018-10-16T01:18:09.130Z,16.97
2018-10-16T01:20:36.102Z,16.90
2018-10-16T01:23:03.090Z,16.97
2018-10-16T01:25:30.068Z,17.30
2018-10-16T01:27:57.034Z,17.33
2018-10-16T01:30:24.010Z,17.70
2018-10-16T01:32:51.026Z,17.70
2018-10-16T01:35:18.006Z,18.00
2018-10-16T01:37:44.973Z,16.47
2018-10-16T01:40:11.949Z,16.83
2018-10-16T01:42:38.939Z,16.77
2018-10-16T01:45:06.272Z,16.63
2018-10-16T01:47:33.269Z,16.90
2018-10-16T01:50:00.285Z,17.93
2018-10-16T01:52:27.301Z,16.30
2018-10-16T01:54:54.294Z,16.00
2018-10-16T01:57:21.257Z,17.47
2018-10-16T01:59:48.241Z,16.43
2018-10-16T02:02:15.280Z,16.47
2018-10-16T02:04:42.340Z,16.80
2018-10-16T02:07:09.357Z,18.80
2018-10-16T02:09:36.338Z,17.70
2018-10-16T02:12:03.394Z,17.03
2018-10-16T02:14:30.389Z,16.70
2018-10-16T02:16:57.390Z,17.30
2018-10-16T02:19:24.374Z,15.63
2018-10-16T02:21:51.354Z,17.57
2018-10-16T02:24:18.369Z,16.13
2018-10-16T02:26:45.353Z,16.57
2018-10-16T02:29:12.354Z,16.07
2018-10-16T02:31:39.356Z,16.57
2018-10-16T02:34:06.335Z,15.37
2018-10-16T02:36:33.399Z,17.17
2018-10-16T02:39:00.382Z,16.27
2018-10-16T02:41:27.389Z,16.47
2018-10-16T02:43:54.388Z,17.87
2018-10-16T02:46:21.373Z,15.70
2018-10-16T02:48:48.363Z,16.53
2018-10-16T02:51:15.350Z,16.50
2018-10-16T02:53:42.356Z,16.87
2018-10-16T02:56:09.354Z,18.33
2018-10-16T02:58:36.378Z,16.23
2018-10-16T03:01:03.710Z,16.10
2018-10-16T03:03:33.242Z,16.33
2018-10-16T03:06:00.204Z,16.20
2018-10-16T03:08:27.195Z,17.27
2018-10-16T03:10:54.174Z,16.70
2018-10-16T03:15:54.859Z,16.70
2018-10-16T03:18:21.816Z,17.43
2018-10-16T03:20:49.518Z,16.60
2018-10-16T03:23:16.513Z,18.00
2018-10-16T03:25:43.500Z,17.00
2018-10-16T03:28:10.487Z,17.17
2018-10-16T03:30:37.503Z,18.43
2018-10-16T03:33:04.466Z,17.00
2018-10-16T03:35:31.434Z,17.37
2018-10-16T03:37:58.442Z,17.70
2018-10-16T03:40:25.432Z,17.37
2018-10-16T03:42:52.377Z,17.23
2018-10-16T03:45:19.361Z,18.00
2018-10-16T03:47:46.475Z,17.20
2018-10-16T03:50:13.326Z,16.37
2018-10-16T03:52:40.290Z,16.73
2018-10-16T03:55:10.272Z,16.17
2018-10-16T03:57:37.225Z,16.70
2018-10-16T04:00:04.793Z,16.67
2018-10-16T04:02:31.731Z,16.53
2018-10-16T04:04:58.674Z,16.53
2018-10-16T04:07:25.624Z,16.63
2018-10-16T04:09:52.570Z,16.17
2018-10-16T04:12:19.521Z,15.90
2018-10-16T04:14:46.467Z,16.43
2018-10-16T04:17:13.394Z,17.20
2018-10-16T04:19:40.295Z,17.23
2018-10-16T04:22:07.221Z,17.43
2018-10-16T04:24:34.214Z,17.87
2018-10-16T04:27:01.151Z,16.60
2018-10-16T04:29:28.133Z,17.63
2018-10-16T04:31:55.059Z,16.40
2018-10-16T04:34:21.968Z,16.00
2018-10-16T04:36:48.889Z,16.40
2018-10-16T04:39:15.795Z,17.50
2018-10-16T04:41:43.033Z,17.83
2018-10-16T04:44:09.912Z,18.10
2018-10-16T04:46:36.925Z,18.70
2018-10-16T04:49:04.236Z,17.97
2018-10-16T04:51:31.149Z,17.40
2018-10-16T04:53:58.056Z,18.47
2018-10-16T04:56:24.965Z,19.60
2018-10-16T04:58:51.891Z,19.77
2018-10-16T05:01:18.822Z,18.60
2018-10-16T05:03:45.729Z,19.60
2018-10-16T05:06:12.674Z,18.87
2018-10-16T05:08:39.685Z,18.03
2018-10-16T05:11:06.602Z,18.07
2018-10-16T05:13:33.526Z,18.53
2018-10-16T05:16:00.464Z,19.00
2018-10-16T05:18:27.389Z,18.60
2018-10-16T05:20:54.297Z,18.70
2018-10-16T05:23:21.217Z,18.73
2018-10-16T05:25:48.129Z,17.93
2018-10-16T05:28:15.050Z,18.50
2018-10-16T05:30:41.971Z,19.77
2018-10-16T05:33:08.890Z,19.60
2018-10-16T05:35:35.808Z,19.30
2018-10-16T05:38:02.781Z,20.27
2018-10-16T05:40:29.746Z,20.23
2018-10-16T05:42:56.676Z,19.07
2018-10-16T05:45:24.920Z,19.60
2018-10-16T05:47:51.869Z,20.50
2018-10-16T05:50:18.797Z,19.90
2018-10-16T05:52:45.720Z,20.60
2018-10-16T05:55:12.674Z,20.30
2018-10-16T05:57:39.618Z,19.67
2018-10-16T06:00:18.149Z,21.33
2018-10-16T06:02:46.132Z,20.33
2018-10-16T06:05:13.092Z,22.03
2018-10-16T06:07:40.525Z,20.97
2018-10-16T06:10:07.484Z,20.23
2018-10-16T06:12:34.389Z,21.33
2018-10-16T06:15:01.479Z,21.67
2018-10-16T06:17:28.716Z,22.53
2018-10-16T06:19:55.653Z,22.33
2018-10-16T06:22:22.570Z,21.90
2018-10-16T06:24:49.514Z,22.03
2018-10-16T06:27:16.430Z,21.33
2018-10-16T06:29:43.357Z,21.53
2018-10-16T06:32:10.265Z,22.17
2018-10-16T06:34:37.261Z,22.03
2018-10-16T06:37:04.525Z,22.10
2018-10-16T06:39:31.456Z,21.73
2018-10-16T06:41:58.373Z,20.60
2018-10-16T06:44:25.274Z,21.53
2018-10-16T06:46:52.181Z,21.30
2018-10-16T06:49:19.085Z,20.67
2018-10-16T06:51:46.000Z,21.80
2018-10-16T06:54:12.912Z,24.50
2018-10-16T06:56:39.889Z,23.10
2018-10-16T06:59:06.772Z,23.60
2018-10-16T07:01:33.688Z,22.60
2018-10-16T07:04:00.588Z,22.80
2018-10-16T07:06:27.563Z,23.17
2018-10-16T07:08:54.437Z,22.00
2018-10-16T07:11:21.351Z,23.93
2018-10-16T07:13:48.273Z,21.67
2018-10-16T07:16:15.345Z,25.33
2018-10-16T07:18:42.265Z,23.90
2018-10-16T07:21:09.220Z,24.20
2018-10-16T07:23:36.168Z,24.90
2018-10-16T07:26:03.057Z,24.53
2018-10-16T07:28:29.969Z,26.07
2018-10-16T07:30:56.893Z,26.00
2018-10-16T07:33:23.801Z,26.03
2018-10-16T07:35:50.718Z,24.83
2018-10-16T07:38:17.697Z,26.13
2018-10-16T07:40:44.585Z,24.53
2018-10-16T07:43:11.505Z,25.10
2018-10-16T07:45:38.505Z,27.20
2018-10-16T07:48:05.431Z,27.90
2018-10-16T07:50:32.405Z,27.73
2018-10-16T07:52:59.306Z,25.93
2018-10-16T07:55:26.215Z,26.70
2018-10-16T07:57:53.135Z,26.67
2018-10-16T08:00:20.061Z,28.13
2018-10-16T08:02:47.000Z,26.37
2018-10-16T08:05:13.918Z,27.83
2018-10-16T08:07:41.357Z,27.17
2018-10-16T08:10:09.516Z,25.70
2018-10-16T08:12:36.437Z,26.83
2018-10-16T08:15:04.181Z,26.90
2018-10-16T08:17:31.092Z,26.70
2018-10-16T08:19:58.008Z,27.07
2018-10-16T08:22:24.929Z,26.47
2018-10-16T08:24:51.837Z,26.33
2018-10-16T08:27:18.749Z,26.97
2018-10-16T08:29:45.655Z,26.77
2018-10-16T08:32:12.587Z,27.80
2018-10-16T08:34:39.519Z,27.73
2018-10-16T08:37:09.132Z,27.23
2018-10-16T08:39:38.160Z,26.10
2018-10-16T08:44:18.741Z,26.23
2018-10-16T08:46:57.492Z,26.33
2018-10-16T08:49:35.988Z,26.23
2018-10-16T08:52:02.891Z,25.77
2018-10-16T08:54:29.824Z,27.07
2018-10-16T08:56:56.741Z,26.00
2018-10-16T08:59:23.672Z,26.57
2018-10-16T09:01:50.589Z,27.23
2018-10-16T09:04:17.486Z,27.07
2018-10-16T09:06:44.420Z,28.03
2018-10-16T09:09:13.477Z,26.43
2018-10-16T09:11:41.919Z,27.07
2018-10-16T09:14:08.956Z,26.97
2018-10-16T09:16:36.373Z,26.57
2018-10-16T09:19:03.379Z,26.27
2018-10-16T09:21:30.321Z,27.77
2018-10-16T09:23:57.257Z,26.53
2018-10-16T09:26:24.164Z,26.30
2018-10-16T09:28:51.085Z,25.63
2018-10-16T09:31:18.065Z,25.87
2018-10-16T09:33:45.044Z,26.03
2018-10-16T09:36:11.984Z,25.77
2018-10-16T09:38:38.925Z,24.30
2018-10-16T09:41:06.093Z,25.47
2018-10-16T09:43:33.020Z,25.60
2018-10-16T09:46:00.352Z,25.93
2018-10-16T09:48:27.248Z,26.87
2018-10-16T09:50:54.264Z,27.57
2018-10-16T09:53:21.185Z,27.50
2018-10-16T09:55:48.119Z,26.57
2018-10-16T09:58:15.037Z,26.63
2018-10-16T10:00:47.682Z,26.80
2018-10-16T10:03:14.601Z,28.27
2018-10-16T10:05:41.524Z,28.70
2018-10-16T10:08:08.452Z,28.07
2018-10-16T10:10:35.381Z,28.17
2018-10-16T10:13:02.333Z,28.50
2018-10-16T10:15:29.328Z,26.67
2018-10-16T10:17:56.264Z,25.47
2018-10-16T10:20:23.212Z,26.13
2018-10-16T10:22:50.153Z,26.00
2018-10-16T10:25:17.160Z,27.57
2018-10-16T10:27:44.013Z,28.53
2018-10-16T10:30:11.609Z,26.73
2018-10-16T10:32:38.530Z,27.67
2018-10-16T10:35:06.892Z,26.17
2018-10-16T10:37:34.609Z,28.10
2018-10-16T10:40:02.003Z,27.17
2018-10-16T10:42:29.044Z,26.40
2018-10-16T10:44:55.963Z,27.60
2018-10-16T10:47:22.852Z,26.77
2018-10-16T10:49:49.820Z,27.60
2018-10-16T10:52:16.844Z,26.33
2018-10-16T10:54:43.752Z,26.57
2018-10-16T10:57:10.804Z,26.53
2018-10-16T10:59:37.602Z,26.43
2018-10-16T11:02:05.696Z,24.97
2018-10-16T11:04:32.597Z,19.93
2018-10-16T11:06:59.557Z,17.87
2018-10-16T11:09:26.468Z,17.43
2018-10-16T11:11:56.174Z,14.10
2018-10-16T11:14:24.117Z,13.90
2018-10-16T11:16:51.033Z,13.07
2018-10-16T11:19:18.217Z,13.60
2018-10-16T11:21:45.302Z,13.73
2018-10-16T11:24:12.324Z,13.00
2018-10-16T11:26:39.387Z,13.97
2018-10-16T11:29:06.302Z,13.77
2018-10-16T11:31:33.269Z,13.83
2018-10-16T11:34:00.145Z,14.73
2018-10-16T11:36:27.108Z,13.90
2018-10-16T11:38:54.030Z,14.83
2018-10-16T11:41:20.941Z,15.20
2018-10-16T11:43:47.844Z,14.17
2018-10-16T11:46:14.765Z,14.93
2018-10-16T11:48:41.753Z,16.00
2018-10-16T11:51:08.665Z,16.00
2018-10-16T11:53:35.582Z,15.63
2018-10-16T11:56:02.556Z,15.80
2018-10-16T11:58:29.470Z,16.40
2018-10-16T12:00:56.428Z,15.30
2018-10-16T12:03:23.372Z,15.63
2018-10-16T12:05:50.769Z,15.57
2018-10-16T12:08:17.704Z,15.20
2018-10-16T12:10:44.656Z,15.03
2018-10-16T12:13:11.633Z,14.27
2018-10-16T12:15:38.517Z,14.37
2018-10-16T12:18:09.368Z,12.90
2018-10-16T12:20:40.522Z,11.70
2018-10-16T12:23:07.448Z,10.83
2018-10-16T12:25:34.413Z,11.20
2018-10-16T12:28:01.403Z,10.37
2018-10-16T12:30:28.413Z,10.60
2018-10-16T12:32:55.389Z,10.53
2018-10-16T12:35:22.329Z,10.30
2018-10-16T12:37:49.264Z,10.63
2018-10-16T12:40:16.351Z,10.97
2018-10-16T12:42:49.874Z,11.13
2018-10-16T12:45:16.834Z,12.17
2018-10-16T12:47:43.740Z,11.70
2018-10-16T12:50:10.749Z,12.53
2018-10-16T12:52:37.606Z,12.00
2018-10-16T12:55:04.587Z,13.00
2018-10-16T12:57:31.518Z,13.47
2018-10-16T12:59:58.499Z,13.73
2018-10-16T13:02:25.381Z,13.20
2018-10-16T13:04:52.354Z,13.67
2018-10-16T13:07:31.070Z,13.87
2018-10-16T13:09:57.994Z,13.60
2018-10-16T13:12:24.925Z,14.10
2018-10-16T13:14:51.868Z,14.77
2018-10-16T13:17:18.886Z,14.10
2018-10-16T13:19:45.748Z,15.20
2018-10-16T13:22:12.797Z,14.30
2018-10-16T13:24:39.866Z,15.17
2018-10-16T13:27:06.935Z,15.73
2018-10-16T13:29:34.190Z,15.73
2018-10-16T13:32:01.823Z,17.00
2018-10-16T13:37:02.481Z,16.73
2018-10-16T13:39:29.446Z,16.00
2018-10-16T13:41:56.358Z,16.50
2018-10-16T13:44:23.281Z,16.57
2018-10-16T13:46:50.203Z,15.40
2018-10-16T13:49:17.102Z,15.50
2018-10-16T13:51:44.005Z,16.43
2018-10-16T13:54:10.951Z,15.37
2018-10-16T13:56:37.977Z,15.87
2018-10-16T13:59:11.694Z,16.27
2018-10-16T14:01:38.616Z,14.67
2018-10-16T14:04:05.748Z,16.30
2018-10-16T14:06:32.665Z,16.13
2018-10-16T14:09:00.148Z,18.60
2018-10-16T14:11:27.113Z,18.27
2018-10-16T14:13:54.038Z,20.63
2018-10-16T14:16:20.965Z,20.40
2018-10-16T14:18:47.889Z,20.77
2018-10-16T14:21:14.820Z,21.53
2018-10-16T14:23:41.820Z,21.40
2018-10-16T14:26:08.962Z,21.10
2018-10-16T14:28:35.793Z,21.27
2018-10-16T14:31:02.726Z,22.57
2018-10-16T14:33:29.677Z,23.70
2018-10-16T14:35:56.598Z,23.23
2018-10-16T14:38:23.593Z,23.27
2018-10-16T14:40:50.512Z,25.07
2018-10-16T14:43:17.405Z,24.40
2018-10-16T14:45:44.396Z,24.17
2018-10-16T14:48:11.852Z,24.40
2018-10-16T14:50:38.820Z,23.87
2018-10-16T14:53:05.814Z,23.93
2018-10-16T14:55:32.750Z,25.60
2018-10-16T14:57:59.721Z,28.43
2018-10-16T15:00:26.710Z,28.97
2018-10-16T15:02:53.926Z,29.03
2018-10-16T15:05:20.845Z,29.17
2018-10-16T15:07:47.814Z,30.37
2018-10-16T15:10:14.816Z,31.00
2018-10-16T15:12:41.812Z,31.67
2018-10-16T15:15:08.906Z,32.60
2018-10-16T15:17:35.844Z,31.30
2018-10-16T15:20:02.837Z,30.83
2018-10-16T15:22:29.721Z,31.43
2018-10-16T15:24:56.636Z,33.10
2018-10-16T15:27:23.576Z,32.80
2018-10-16T15:29:50.846Z,32.80
2018-10-16T15:32:17.776Z,34.17
2018-10-16T15:34:45.879Z,35.20
2018-10-16T15:37:12.841Z,36.80
2018-10-16T15:39:39.761Z,36.10
2018-10-16T15:42:06.928Z,35.80
2018-10-16T15:44:33.817Z,36.70
2018-10-16T15:47:00.749Z,36.50
2018-10-16T15:49:27.673Z,35.83
2018-10-16T15:51:54.594Z,35.33
2018-10-16T15:54:21.521Z,36.17
2018-10-16T15:56:48.445Z,36.57
2018-10-16T15:59:15.386Z,36.93
2018-10-16T16:01:42.308Z,38.37
2018-10-16T16:04:09.274Z,37.50
2018-10-16T16:06:36.165Z,38.33
2018-10-16T16:09:04.218Z,37.73
2018-10-16T16:11:31.153Z,37.53
2018-10-16T16:13:58.155Z,37.90
2018-10-16T16:16:25.021Z,37.70
2018-10-16T16:18:51.984Z,37.57
2018-10-16T16:21:18.938Z,39.70
2018-10-16T16:23:45.875Z,38.83
2018-10-16T16:26:12.890Z,39.03
2018-10-16T16:28:39.798Z,40.77
2018-10-16T16:31:06.745Z,39.17
2018-10-16T16:33:33.665Z,38.67
2018-10-16T16:36:00.630Z,38.67
2018-10-16T16:38:27.557Z,39.37
2018-10-16T16:40:54.541Z,39.73
2018-10-16T16:43:21.438Z,39.00
2018-10-16T16:45:48.374Z,38.67
2018-10-16T16:48:15.359Z,40.23
2018-10-16T16:50:42.285Z,41.53
2018-10-16T16:53:15.882Z,38.93
2018-10-16T16:55:42.791Z,36.57
2018-10-16T16:58:09.745Z,40.27
2018-10-16T17:00:36.672Z,40.13
2018-10-16T17:03:03.609Z,39.67
2018-10-16T17:05:30.585Z,38.43
2018-10-16T17:07:57.561Z,40.20
2018-10-16T17:10:24.556Z,41.67
2018-10-16T17:12:51.469Z,40.67
2018-10-16T17:15:18.414Z,39.03
2018-10-16T17:17:46.111Z,38.67
2018-10-16T17:20:13.139Z,41.20
2018-10-16T17:22:39.998Z,40.33
2018-10-16T17:25:08.441Z,38.67
2018-10-16T17:27:35.258Z,38.73
2018-10-16T17:30:02.233Z,39.83
2018-10-16T17:32:29.158Z,41.40
2018-10-16T17:34:56.091Z,37.33
2018-10-16T17:37:23.041Z,40.40
2018-10-16T17:39:49.985Z,42.17
2018-10-16T17:42:16.966Z,38.20
2018-10-16T17:44:43.895Z,41.07
2018-10-16T17:47:10.835Z,38.63
2018-10-16T17:49:37.778Z,40.60
2018-10-16T17:52:04.766Z,37.53
2018-10-16T17:54:31.677Z,39.63
2018-10-16T17:56:58.639Z,39.83
2018-10-16T17:59:25.597Z,39.97
2018-10-16T18:01:52.804Z,39.43
2018-10-16T18:04:19.756Z,37.37
2018-10-16T18:06:46.673Z,35.70
2018-10-16T18:09:14.952Z,36.00
2018-10-16T18:11:42.130Z,36.30
2018-10-16T18:14:09.772Z,37.40
2018-10-16T18:16:37.063Z,37.10
2018-10-16T18:19:04.403Z,39.50
2018-10-16T18:21:32.421Z,38.40
2018-10-16T18:23:59.388Z,38.33
2018-10-16T18:26:26.341Z,38.90
2018-10-16T18:28:53.260Z,37.10
2018-10-16T18:31:20.184Z,36.93
2018-10-16T18:33:47.098Z,37.27
2018-10-16T18:36:14.028Z,35.67
2018-10-16T18:38:40.986Z,37.53
2018-10-16T18:41:07.900Z,37.10
2018-10-16T18:43:34.956Z,38.57
2018-10-16T18:46:01.890Z,37.30
2018-10-16T18:48:28.925Z,38.33
2018-10-16T18:50:55.830Z,37.03
2018-10-16T18:53:22.755Z,40.20
2018-10-16T18:55:49.687Z,39.90
2018-10-16T18:58:16.621Z,39.93
2018-10-16T19:00:43.653Z,41.33
2018-10-16T19:03:10.616Z,39.60
2018-10-16T19:05:37.554Z,38.13
2018-10-16T19:08:05.134Z,37.90
2018-10-16T19:10:32.153Z,40.80
2018-10-16T19:13:01.492Z,40.97
2018-10-16T19:15:28.950Z,43.50
2018-10-16T19:17:55.882Z,44.37
2018-10-16T19:20:22.842Z,43.73
2018-10-16T19:22:49.868Z,44.50
2018-10-16T19:25:18.518Z,44.50
2018-10-16T19:27:45.558Z,45.47
2018-10-16T19:30:12.842Z,43.60
2018-10-16T19:32:39.782Z,41.73
2018-10-16T19:35:07.493Z,43.10
2018-10-16T19:37:34.528Z,42.83
2018-10-16T19:40:01.491Z,42.80
2018-10-16T19:42:28.481Z,43.83
2018-10-16T19:44:55.425Z,42.10
2018-10-16T19:47:22.352Z,43.07
2018-10-16T19:49:49.371Z,40.00
2018-10-16T19:52:16.334Z,40.63
2018-10-16T19:54:43.257Z,42.77
2018-10-16T19:57:10.339Z,43.63
2018-10-16T19:59:37.276Z,41.63
2018-10-16T20:02:05.101Z,42.87
2018-10-16T20:04:32.067Z,40.83
2018-10-16T20:06:59.050Z,41.33
2018-10-16T20:09:25.967Z,41.77
2018-10-16T20:11:53.682Z,43.33
2018-10-16T20:14:20.764Z,43.40
2018-10-16T20:16:47.597Z,42.50
2018-10-16T20:19:14.549Z,40.63
2018-10-16T20:21:41.485Z,40.33
2018-10-16T20:24:08.427Z,41.30
2018-10-16T20:26:35.388Z,40.27
2018-10-16T20:29:02.345Z,40.03
2018-10-16T20:31:30.365Z,40.43
2018-10-16T20:33:57.471Z,41.13
2018-10-16T20:36:24.517Z,40.13
2018-10-16T20:38:51.348Z,41.53
2018-10-16T20:41:18.284Z,40.33
2018-10-16T20:43:45.284Z,40.70
2018-10-16T20:46:12.236Z,40.17
2018-10-16T20:48:39.183Z,42.80
2018-10-16T20:51:06.112Z,39.90
2018-10-16T20:53:33.622Z,41.20
2018-10-16T20:56:00.616Z,40.93
2018-10-16T20:58:27.558Z,41.97
2018-10-16T21:00:54.888Z,42.53
2018-10-16T21:03:21.962Z,41.47
2018-10-16T21:05:49.116Z,44.10
2018-10-16T21:08:15.988Z,44.27
2018-10-16T21:10:42.928Z,43.40
2018-10-16T21:13:09.859Z,42.97
2018-10-16T21:15:36.804Z,44.20
2018-10-16T21:18:04.093Z,42.43
2018-10-16T21:20:31.004Z,42.10
2018-10-16T21:22:58.100Z,44.03
2018-10-16T21:25:25.017Z,42.50
2018-10-16T21:27:52.609Z,48.27
2018-10-16T21:30:20.013Z,46.30
2018-10-16T21:32:46.969Z,47.97
2018-10-16T21:35:13.956Z,48.60
2018-10-16T21:37:40.868Z,46.80
2018-10-16T21:40:08.851Z,44.23
2018-10-16T21:42:35.932Z,49.97
2018-10-16T21:45:02.986Z,45.47
2018-10-16T21:47:30.193Z,42.83
2018-10-16T21:49:57.249Z,42.00
2018-10-16T21:52:24.359Z,42.33
2018-10-16T21:54:51.304Z,43.90
2018-10-16T21:57:18.252Z,42.53
2018-10-16T21:59:45.436Z,40.37
2018-10-16T22:02:18.221Z,41.60
2018-10-16T22:04:45.162Z,42.70
2018-10-16T22:07:12.157Z,42.87
2018-10-16T22:09:39.025Z,44.20
2018-10-16T22:12:06.097Z,46.70
2018-10-16T22:14:33.144Z,47.40
2018-10-16T22:17:00.071Z,43.90
2018-10-16T22:19:27.022Z,46.87
2018-10-16T22:21:55.333Z,44.00
2018-10-16T22:24:22.286Z,43.27
2018-10-16T22:26:49.213Z,43.63
2018-10-16T22:29:16.240Z,46.97
2018-10-16T22:31:43.147Z,43.10
2018-10-16T22:34:10.089Z,45.63
2018-10-16T22:36:37.008Z,45.17
2018-10-16T22:39:06.833Z,46.23
2018-10-16T22:41:33.737Z,44.83
2018-10-16T22:44:00.672Z,43.43
2018-10-16T22:46:27.608Z,40.80
2018-10-16T22:48:54.580Z,42.50
2018-10-16T22:51:21.441Z,49.20
2018-10-16T22:53:48.363Z,44.00
2018-10-16T22:56:15.260Z,40.83
2018-10-16T22:58:42.164Z,40.07
2018-10-16T23:01:09.115Z,39.60
2018-10-16T23:03:35.983Z,40.87
2018-10-16T23:06:03.170Z,39.23
2018-10-16T23:08:30.266Z,41.40
2018-10-16T23:10:57.260Z,44.20
2018-10-16T23:13:24.336Z,42.03
2018-10-16T23:15:51.420Z,39.77
2018-10-16T23:18:18.399Z,39.67
2018-10-16T23:20:45.516Z,38.20
2018-10-16T23:23:12.524Z,37.90
2018-10-16T23:25:39.530Z,38.63
2018-10-16T23:28:06.973Z,39.03
2018-10-16T23:30:34.731Z,42.07
2018-10-16T23:33:01.801Z,41.77
2018-10-16T23:35:29.134Z,37.67
2018-10-16T23:37:56.164Z,37.33
2018-10-16T23:40:23.299Z,36.87
2018-10-16T23:42:50.305Z,38.87
2018-10-16T23:45:17.432Z,45.27
2018-10-16T23:47:44.356Z,44.13
2018-10-16T23:50:11.296Z,45.03
2018-10-16T23:52:38.253Z,45.23
2018-10-16T23:55:06.620Z,41.70
2018-10-16T23:57:33.553Z,39.30
